Time;durP1;ratioP1;P1;durP2;ratioP2;P2;SDS_P1;SDS_P2;PMS_P1;PMS_P2;Temp;Humidity;BMP_temperature;BMP_pressure;BME280_temperature;BME280_humidity;BME280_pressure;Samples;Min_cycle;Max_cycle;Signal;HPM_P1;HPM_P2
2022/10/26 00:01:51;;;;;;;4.88;3.95;;;11.70;99.90;;;;;;6182534;23;20181;-91
2022/10/26 00:04:20;;;;;;;4.03;3.63;;;11.70;99.90;;;;;;6182609;23;20179;-92
2022/10/26 00:06:48;;;;;;;4.93;4.32;;;11.60;99.90;;;;;;6182340;23;20194;-92
2022/10/26 00:09:16;;;;;;;5.43;4.57;;;11.60;99.90;;;;;;6182163;23;20190;-92
2022/10/26 00:11:45;;;;;;;5.35;4.35;;;11.60;99.90;;;;;;6185705;23;20249;-91
2022/10/26 00:14:14;;;;;;;3.60;3.30;;;11.60;99.90;;;;;;6192115;23;20190;-91
2022/10/26 00:16:42;;;;;;;6.72;3.20;;;11.60;99.90;;;;;;6192353;23;20186;-91
2022/10/26 00:19:11;;;;;;;3.78;3.42;;;11.60;99.90;;;;;;6185598;23;20201;-92
2022/10/26 00:21:39;;;;;;;3.53;3.15;;;11.50;99.90;;;;;;6184843;23;20177;-93
2022/10/26 00:24:07;;;;;;;4.03;2.95;;;11.50;99.90;;;;;;6185501;23;20177;-92
2022/10/26 00:26:35;;;;;;;5.75;4.18;;;11.50;99.90;;;;;;6185493;23;20179;-92
2022/10/26 00:29:04;;;;;;;4.63;3.15;;;11.50;99.90;;;;;;6184753;23;20190;-92
2022/10/26 00:31:34;;;;;;;4.53;3.83;;;11.50;99.90;;;;;;6185414;23;20178;-91
2022/10/26 00:34:02;;;;;;;4.70;4.07;;;11.50;99.90;;;;;;6185401;23;20194;-92
2022/10/26 00:36:31;;;;;;;3.22;2.90;;;11.50;99.90;;;;;;6184830;23;20174;-91
2022/10/26 00:38:59;;;;;;;4.07;3.67;;;11.50;99.90;;;;;;6184714;23;20190;-91
2022/10/26 00:41:30;;;;;;;3.72;3.42;;;11.50;99.90;;;;;;6185762;23;20249;-92
2022/10/26 00:43:59;;;;;;;4.38;3.92;;;11.40;99.90;;;;;;6185082;23;20166;-91
2022/10/26 00:46:32;;;;;;;5.57;3.85;;;11.40;99.90;;;;;;6185444;23;20171;-92
2022/10/26 00:49:05;;;;;;;5.53;3.58;;;11.40;99.90;;;;;;6184472;23;20247;-92
2022/10/26 00:51:37;;;;;;;7.68;3.65;;;11.40;99.90;;;;;;6185055;23;20177;-92
2022/10/26 00:54:11;;;;;;;4.13;3.15;;;11.30;99.90;;;;;;6184883;23;20233;-92
2022/10/26 00:56:41;;;;;;;3.85;3.55;;;11.40;99.90;;;;;;6185419;23;20175;-92
2022/10/26 00:59:12;;;;;;;4.97;4.10;;;11.30;99.90;;;;;;6184567;23;20197;-91
2022/10/26 01:01:44;;;;;;;4.45;4.05;;;11.30;99.90;;;;;;6184981;23;20171;-92
2022/10/26 01:04:15;;;;;;;4.50;3.95;;;11.20;99.90;;;;;;6184922;23;20174;-92
2022/10/26 01:06:44;;;;;;;3.08;2.80;;;11.30;99.90;;;;;;6185212;23;20167;-92
2022/10/26 01:09:13;;;;;;;5.07;2.85;;;11.20;99.90;;;;;;6184237;23;20205;-91
2022/10/26 01:11:41;;;;;;;3.47;2.72;;;11.20;99.90;;;;;;6184996;23;20170;-92
2022/10/26 01:14:12;;;;;;;5.05;2.85;;;11.10;99.90;;;;;;6185825;23;20201;-91
2022/10/26 01:16:58;;;;;;;2.97;2.55;;;11.10;99.90;;;;;;6187369;23;20170;-92
2022/10/26 01:19:56;;;;;;;3.55;2.70;;;11.10;99.90;;;;;;6186590;23;20261;-92
2022/10/26 01:22:30;;;;;;;5.30;3.25;;;11.10;99.90;;;;;;6186734;23;20181;-92
2022/10/26 01:25:20;;;;;;;4.07;2.75;;;11.10;99.90;;;;;;6187074;23;20167;-93
2022/10/26 01:27:50;;;;;;;2.78;2.58;;;11.10;99.90;;;;;;6187329;23;20167;-92
2022/10/26 01:30:34;;;;;;;3.40;2.97;;;11.00;99.90;;;;;;6173469;23;20199;-89
2022/10/26 01:33:18;;;;;;;6.80;2.92;;;11.10;99.90;;;;;;6156838;23;20199;-89
2022/10/26 01:35:52;;;;;;;3.50;3.03;;;11.00;99.90;;;;;;6157009;23;20191;-89
2022/10/26 01:38:26;;;;;;;4.32;2.70;;;11.00;99.90;;;;;;6156617;23;20167;-89
2022/10/26 01:41:00;;;;;;;2.95;2.72;;;11.00;99.90;;;;;;6156669;23;20197;-89
2022/10/26 01:43:33;;;;;;;3.15;2.50;;;11.00;99.90;;;;;;6157123;23;20167;-89
2022/10/26 01:46:04;;;;;;;3.30;3.03;;;10.90;99.90;;;;;;6156913;23;20172;-89
2022/10/26 01:48:34;;;;;;;3.38;3.08;;;10.90;99.90;;;;;;6156525;23;20178;-89
2022/10/26 01:51:04;;;;;;;4.43;3.20;;;10.80;99.90;;;;;;6156355;23;20202;-89
2022/10/26 01:53:32;;;;;;;2.92;2.63;;;10.80;99.90;;;;;;6156219;23;20186;-89
2022/10/26 01:56:02;;;;;;;2.65;2.45;;;10.80;99.90;;;;;;6156815;23;20187;-89
2022/10/26 01:59:02;;;;;;;3.10;2.85;;;10.80;99.90;;;;;;6156324;23;20175;-88
2022/10/26 02:01:50;;;;;;;4.78;3.00;;;10.80;99.90;;;;;;6156906;23;20198;-89
2022/10/26 02:04:32;;;;;;;2.08;1.98;;;10.70;99.90;;;;;;6156712;23;20190;-89
2022/10/26 02:07:03;;;;;;;4.22;3.35;;;10.80;99.90;;;;;;6156102;23;20172;-89
2022/10/26 02:09:40;;;;;;;2.78;2.58;;;10.80;99.90;;;;;;6156303;23;20179;-88
2022/10/26 02:12:20;;;;;;;3.15;2.42;;;10.80;99.90;;;;;;6156875;23;20182;-89
2022/10/26 02:14:51;;;;;;;2.83;2.60;;;10.80;99.90;;;;;;6156263;23;20174;-89
2022/10/26 02:17:28;;;;;;;2.28;2.08;;;10.80;99.90;;;;;;6156335;23;20190;-89
2022/10/26 02:20:02;;;;;;;3.33;2.50;;;10.70;99.90;;;;;;6156258;23;20191;-89
2022/10/26 02:22:33;;;;;;;6.90;2.78;;;10.70;99.90;;;;;;6156191;23;20167;-89
2022/10/26 02:25:07;;;;;;;2.30;2.10;;;10.70;99.90;;;;;;6155962;23;20199;-89
2022/10/26 02:27:40;;;;;;;6.22;2.88;;;10.70;99.90;;;;;;6156077;23;20177;-89
2022/10/26 02:30:10;;;;;;;2.83;2.30;;;10.70;99.90;;;;;;6156116;23;20199;-89
2022/10/26 02:32:44;;;;;;;3.70;2.78;;;10.70;99.90;;;;;;6156288;23;20181;-89
2022/10/26 02:35:14;;;;;;;3.63;2.50;;;10.70;99.90;;;;;;6156151;23;20198;-89
2022/10/26 02:37:45;;;;;;;2.20;2.05;;;10.70;99.90;;;;;;6156377;23;20181;-88
2022/10/26 02:40:19;;;;;;;6.78;3.60;;;10.60;99.90;;;;;;6155692;23;20195;-89
2022/10/26 02:42:48;;;;;;;14.32;5.40;;;10.60;99.90;;;;;;6156635;23;20195;-89
2022/10/26 02:45:21;;;;;;;5.82;4.28;;;10.50;99.90;;;;;;6155724;23;20171;-89
2022/10/26 02:47:51;;;;;;;3.88;2.95;;;10.50;99.90;;;;;;6156259;23;20236;-89
2022/10/26 02:50:22;;;;;;;3.55;3.25;;;10.50;99.90;;;;;;6155717;23;20214;-89
2022/10/26 02:53:01;;;;;;;4.90;3.03;;;10.50;99.90;;;;;;6156065;23;20168;-89
2022/10/26 02:55:35;;;;;;;3.92;2.78;;;10.50;99.90;;;;;;6155891;23;20187;-89
2022/10/26 02:58:08;;;;;;;4.50;3.45;;;10.50;99.90;;;;;;6155839;23;20171;-89
2022/10/26 03:00:36;;;;;;;6.90;3.47;;;10.50;99.90;;;;;;6155433;23;20199;-88
2022/10/26 03:03:06;;;;;;;2.90;2.70;;;10.50;99.90;;;;;;6156087;23;20203;-89
2022/10/26 03:05:35;;;;;;;3.40;2.63;;;10.50;99.90;;;;;;6156527;23;20178;-89
2022/10/26 03:08:04;;;;;;;4.63;2.90;;;10.50;99.90;;;;;;6155789;23;20186;-88
2022/10/26 03:10:33;;;;;;;2.40;2.20;;;10.60;99.90;;;;;;6155400;23;20202;-89
2022/10/26 03:13:01;;;;;;;2.83;2.60;;;10.50;99.90;;;;;;6157132;23;20183;-89
2022/10/26 03:15:30;;;;;;;1.92;1.83;;;10.50;99.90;;;;;;6157147;23;20187;-88
2022/10/26 03:17:58;;;;;;;2.42;2.22;;;10.50;99.90;;;;;;6156491;23;20175;-89
2022/10/26 03:20:28;;;;;;;13.55;2.75;;;10.50;99.90;;;;;;6155038;23;20195;-88
2022/10/26 03:22:56;;;;;;;3.05;2.42;;;10.50;99.90;;;;;;6155107;23;20172;-89
2022/10/26 03:25:25;;;;;;;3.03;2.75;;;10.40;99.90;;;;;;6155822;23;20183;-89
2022/10/26 03:27:57;;;;;;;3.03;2.80;;;10.40;99.90;;;;;;6155793;23;20179;-88
2022/10/26 03:30:26;;;;;;;3.40;2.88;;;10.40;99.90;;;;;;6155056;23;20199;-88
2022/10/26 03:32:55;;;;;;;2.88;2.65;;;10.30;99.90;;;;;;6155783;23;20172;-89
2022/10/26 03:35:23;;;;;;;4.07;3.33;;;10.30;99.90;;;;;;6155207;23;20172;-88
2022/10/26 03:37:53;;;;;;;3.25;2.70;;;10.20;99.90;;;;;;6154967;23;20250;-88
2022/10/26 03:40:21;;;;;;;3.78;3.13;;;10.20;99.90;;;;;;6154990;23;20202;-88
2022/10/26 03:42:50;;;;;;;3.55;3.25;;;10.20;99.90;;;;;;6155361;23;20186;-89
2022/10/26 03:45:19;;;;;;;3.30;3.00;;;10.20;99.90;;;;;;6155326;23;20206;-89
2022/10/26 03:47:48;;;;;;;7.43;3.63;;;10.30;99.90;;;;;;6155479;23;20171;-88
2022/10/26 03:50:19;;;;;;;2.65;2.45;;;10.30;99.90;;;;;;6154400;23;20202;-88
2022/10/26 03:52:48;;;;;;;3.00;2.75;;;10.30;99.90;;;;;;6155312;23;20231;-89
2022/10/26 03:55:19;;;;;;;3.30;2.95;;;10.40;99.90;;;;;;6155436;23;20175;-88
2022/10/26 03:57:47;;;;;;;4.95;3.17;;;10.40;99.90;;;;;;6155008;23;20193;-88
2022/10/26 04:00:17;;;;;;;3.33;2.97;;;10.40;99.90;;;;;;6154923;23;20191;-88
2022/10/26 04:02:53;;;;;;;3.03;2.72;;;10.40;99.90;;;;;;6155024;23;20176;-88
2022/10/26 04:05:21;;;;;;;3.00;2.70;;;10.40;99.90;;;;;;6155503;23;20175;-88
2022/10/26 04:07:53;;;;;;;4.93;2.90;;;10.40;99.90;;;;;;6155117;23;20174;-88
2022/10/26 04:10:23;;;;;;;27.27;4.43;;;10.40;99.90;;;;;;6155090;23;20274;-88
2022/10/26 04:12:52;;;;;;;2.85;2.67;;;10.40;99.90;;;;;;6155282;23;20171;-88
2022/10/26 04:15:22;;;;;;;4.10;3.05;;;10.40;99.90;;;;;;6155293;23;20179;-88
2022/10/26 04:17:56;;;;;;;2.58;2.33;;;10.40;99.90;;;;;;6154964;23;20201;-89
2022/10/26 04:20:24;;;;;;;3.47;2.85;;;10.40;99.90;;;;;;6154801;23;20227;-88
2022/10/26 04:22:59;;;;;;;3.35;2.67;;;10.30;99.90;;;;;;6155282;23;20182;-89
2022/10/26 04:25:30;;;;;;;2.95;2.75;;;10.30;99.90;;;;;;6155066;23;20231;-89
2022/10/26 04:28:00;;;;;;;3.78;3.13;;;10.30;99.90;;;;;;6155480;23;20182;-88
2022/10/26 04:30:29;;;;;;;3.05;2.75;;;10.30;99.90;;;;;;6154712;23;20199;-89
2022/10/26 04:32:57;;;;;;;3.33;3.03;;;10.30;99.90;;;;;;6154856;23;20210;-88
2022/10/26 04:35:25;;;;;;;2.63;2.42;;;10.30;99.90;;;;;;6155579;23;20178;-89
2022/10/26 04:37:57;;;;;;;3.45;3.00;;;10.30;99.90;;;;;;6154790;23;20202;-88
2022/10/26 04:40:26;;;;;;;3.33;2.72;;;10.30;99.90;;;;;;6154826;23;20198;-88
2022/10/26 04:42:56;;;;;;;7.25;3.80;;;10.30;99.90;;;;;;6154801;23;20179;-88
2022/10/26 04:45:26;;;;;;;2.63;2.42;;;10.30;99.90;;;;;;6155678;23;20182;-88
2022/10/26 04:48:03;;;;;;;4.00;2.83;;;10.30;99.90;;;;;;6155611;23;20175;-89
2022/10/26 04:50:32;;;;;;;6.00;3.67;;;10.30;99.90;;;;;;6154960;23;20198;-88
2022/10/26 04:53:00;;;;;;;5.32;3.10;;;10.30;99.90;;;;;;6154731;23;20171;-88
2022/10/26 04:55:29;;;;;;;3.20;2.90;;;10.30;99.90;;;;;;6155142;23;20177;-88
2022/10/26 04:57:59;;;;;;;2.95;2.75;;;10.30;99.90;;;;;;6154780;23;20198;-88
2022/10/26 05:00:31;;;;;;;4.97;3.42;;;10.30;99.90;;;;;;6154974;23;20231;-89
2022/10/26 05:03:00;;;;;;;3.15;2.90;;;10.30;99.90;;;;;;6155237;23;20170;-89
2022/10/26 05:05:29;;;;;;;4.85;3.97;;;10.30;99.90;;;;;;6155133;23;20226;-88
2022/10/26 05:07:58;;;;;;;5.65;4.07;;;10.40;99.90;;;;;;6155115;23;20171;-88
2022/10/26 05:10:27;;;;;;;7.85;4.07;;;10.30;99.90;;;;;;6155410;23;20194;-88
2022/10/26 05:12:59;;;;;;;3.35;3.05;;;10.30;99.90;;;;;;6155535;23;20185;-88
2022/10/26 05:15:28;;;;;;;4.25;3.75;;;10.40;99.90;;;;;;6155186;23;20178;-88
2022/10/26 05:17:57;;;;;;;4.63;4.22;;;10.40;99.90;;;;;;6154433;23;20201;-88
2022/10/26 05:20:28;;;;;;;5.65;4.45;;;10.40;99.90;;;;;;6154722;23;20202;-87
2022/10/26 05:22:57;;;;;;;5.88;4.70;;;10.40;99.90;;;;;;6154447;23;20175;-88
2022/10/26 05:25:26;;;;;;;4.43;4.00;;;10.50;99.90;;;;;;6154899;23;20178;-88
2022/10/26 05:27:59;;;;;;;3.92;3.55;;;10.50;99.90;;;;;;6155044;23;20179;-88
2022/10/26 05:30:28;;;;;;;6.63;4.63;;;10.60;99.90;;;;;;6154369;23;20203;-88
2022/10/26 05:32:56;;;;;;;5.78;4.53;;;10.60;99.90;;;;;;6154531;23;20171;-88
2022/10/26 05:35:25;;;;;;;6.20;4.95;;;10.60;99.90;;;;;;6154873;23;20176;-88
2022/10/26 05:37:54;;;;;;;5.55;5.05;;;10.60;99.90;;;;;;6154635;23;20256;-89
2022/10/26 05:40:22;;;;;;;6.05;5.25;;;10.60;99.90;;;;;;6154937;23;20195;-89
2022/10/26 05:42:51;;;;;;;6.45;5.30;;;10.70;99.90;;;;;;6155056;23;20172;-89
2022/10/26 05:45:21;;;;;;;6.40;5.70;;;10.70;99.90;;;;;;6155018;23;20180;-89
2022/10/26 05:47:49;;;;;;;8.45;6.32;;;10.70;99.90;;;;;;6155185;23;20171;-89
2022/10/26 05:50:18;;;;;;;6.60;6.05;;;10.80;99.90;;;;;;6154377;23;20222;-89
2022/10/26 05:52:48;;;;;;;9.48;8.45;;;10.80;99.90;;;;;;6154408;23;20174;-89
2022/10/26 05:55:18;;;;;;;9.50;7.68;;;10.90;99.90;;;;;;6154819;23;20167;-89
2022/10/26 05:57:47;;;;;;;9.25;8.35;;;10.90;99.90;;;;;;6154659;23;20191;-89
2022/10/26 06:00:18;;;;;;;10.23;9.23;;;11.00;99.90;;;;;;6155425;23;20286;-89
2022/10/26 06:03:04;;;;;;;11.32;9.35;;;11.00;99.90;;;;;;6156820;23;20183;-89
2022/10/26 06:05:37;;;;;;;14.07;8.50;;;11.10;99.90;;;;;;6156861;23;20171;-89
2022/10/26 06:08:10;;;;;;;20.42;10.30;;;11.20;99.90;;;;;;6156861;23;20179;-89
2022/10/26 06:10:39;;;;;;;11.85;10.60;;;11.20;99.90;;;;;;6156051;23;20203;-89
2022/10/26 06:13:08;;;;;;;13.65;10.52;;;11.30;99.90;;;;;;6156604;23;20176;-89
2022/10/26 06:15:45;;;;;;;12.52;11.23;;;11.30;99.90;;;;;;6156090;23;20178;-89
2022/10/26 06:18:24;;;;;;;12.50;10.32;;;11.40;99.90;;;;;;6156396;23;20190;-87
2022/10/26 06:21:14;;;;;;;12.38;11.07;;;11.40;99.90;;;;;;6156213;23;20231;-88
2022/10/26 06:23:51;;;;;;;13.52;11.02;;;11.50;99.90;;;;;;6156229;23;20171;-87
2022/10/26 06:26:31;;;;;;;11.93;10.82;;;11.60;99.90;;;;;;6156307;23;20201;-88
2022/10/26 06:29:10;;;;;;;11.25;10.20;;;11.60;99.90;;;;;;6156280;23;20163;-87
2022/10/26 06:31:38;;;;;;;11.70;10.60;;;11.60;99.90;;;;;;6156342;23;20198;-87
2022/10/26 06:34:11;;;;;;;13.88;12.48;;;11.70;99.90;;;;;;6156601;23;20171;-87
2022/10/26 06:36:41;;;;;;;13.30;12.10;;;11.70;99.90;;;;;;6156285;23;20167;-87
2022/10/26 06:39:12;;;;;;;12.32;11.05;;;11.70;99.90;;;;;;6155605;23;20190;-88
2022/10/26 06:41:41;;;;;;;16.95;14.55;;;11.80;99.90;;;;;;6156364;23;20203;-88
2022/10/26 06:44:22;;;;;;;16.08;14.48;;;11.80;99.90;;;;;;6156100;23;20171;-88
2022/10/26 06:46:59;;;;;;;14.07;12.73;;;11.80;99.90;;;;;;6157372;23;20169;-88
2022/10/26 06:49:35;;;;;;;13.70;12.30;;;11.80;99.90;;;;;;6155988;23;20167;-88
2022/10/26 06:52:10;;;;;;;14.30;12.05;;;11.80;99.90;;;;;;6155788;23;20173;-88
2022/10/26 06:54:49;;;;;;;12.88;11.57;;;11.80;99.90;;;;;;6156176;23;20202;-88
2022/10/26 06:57:19;;;;;;;13.38;11.88;;;11.90;99.90;;;;;;6155887;23;20175;-88
2022/10/26 06:59:50;;;;;;;13.90;12.52;;;12.00;99.90;;;;;;6155653;23;20195;-90
2022/10/26 07:02:19;;;;;;;13.07;11.93;;;12.00;99.90;;;;;;6155875;23;20174;-88
2022/10/26 07:04:49;;;;;;;12.57;10.98;;;12.00;99.90;;;;;;6156040;23;20175;-88
2022/10/26 07:07:20;;;;;;;13.82;12.43;;;12.10;99.90;;;;;;6155665;23;20175;-87
2022/10/26 07:09:49;;;;;;;14.63;13.15;;;12.10;99.90;;;;;;6155192;23;20203;-87
2022/10/26 07:12:17;;;;;;;14.75;12.63;;;12.20;99.90;;;;;;6156075;23;20171;-87
2022/10/26 07:14:45;;;;;;;16.70;13.52;;;12.20;99.90;;;;;;6155960;23;20180;-87
2022/10/26 07:17:14;;;;;;;21.35;12.57;;;12.20;99.90;;;;;;6155998;23;20183;-87
2022/10/26 07:19:43;;;;;;;20.77;15.88;;;12.30;99.90;;;;;;6155609;23;20191;-87
2022/10/26 07:22:13;;;;;;;15.35;12.18;;;12.30;99.90;;;;;;6155762;23;20175;-87
2022/10/26 07:24:41;;;;;;;15.27;13.75;;;12.30;99.90;;;;;;6155718;23;20198;-87
2022/10/26 07:27:09;;;;;;;14.52;12.93;;;12.30;99.90;;;;;;6156002;23;20190;-87
2022/10/26 07:29:38;;;;;;;13.40;12.10;;;12.30;99.90;;;;;;6155596;23;20198;-87
2022/10/26 07:32:06;;;;;;;14.13;12.65;;;12.30;99.90;;;;;;6155369;23;20182;-87
2022/10/26 07:34:35;;;;;;;18.42;14.55;;;12.40;99.90;;;;;;6155878;23;20179;-88
2022/10/26 07:37:03;;;;;;;14.30;12.20;;;12.40;99.90;;;;;;6155868;23;20179;-88
2022/10/26 07:39:32;;;;;;;19.55;13.68;;;12.50;99.90;;;;;;6155397;23;20191;-88
2022/10/26 07:42:01;;;;;;;14.93;12.48;;;12.40;99.90;;;;;;6155626;23;20179;-89
2022/10/26 07:44:29;;;;;;;21.38;13.95;;;12.50;99.90;;;;;;6155325;23;20175;-89
2022/10/26 07:46:57;;;;;;;18.60;12.50;;;12.50;99.90;;;;;;6155798;23;20191;-88
2022/10/26 07:49:25;;;;;;;12.82;11.50;;;12.60;99.90;;;;;;6156625;23;20172;-88
2022/10/26 07:51:55;;;;;;;19.98;14.30;;;12.60;99.90;;;;;;6155777;23;20171;-88
2022/10/26 07:54:23;;;;;;;19.00;15.75;;;12.60;99.90;;;;;;6155525;23;20171;-88
2022/10/26 07:56:52;;;;;;;24.98;15.35;;;12.70;99.90;;;;;;6155230;23;20183;-88
2022/10/26 07:59:21;;;;;;;23.55;14.55;;;12.60;99.90;;;;;;6155214;23;20266;-87
2022/10/26 08:01:49;;;;;;;24.92;16.42;;;12.60;99.90;;;;;;6155629;23;20186;-88
2022/10/26 08:04:18;;;;;;;28.40;17.95;;;12.60;99.90;;;;;;6155373;23;20202;-88
2022/10/26 08:06:47;;;;;;;36.47;17.65;;;12.60;99.90;;;;;;6155440;23;20175;-88
2022/10/26 08:09:15;;;;;;;23.17;16.20;;;12.50;99.90;;;;;;6155001;23;20175;-88
2022/10/26 08:11:43;;;;;;;29.45;17.65;;;12.50;99.90;;;;;;6155328;23;20179;-88
2022/10/26 08:14:13;;;;;;;33.92;17.10;;;12.50;99.90;;;;;;6155630;23;20175;-88
2022/10/26 08:16:42;;;;;;;31.75;18.90;;;12.50;99.90;;;;;;6155440;23;20184;-88
2022/10/26 08:19:10;;;;;;;20.92;17.27;;;12.50;99.90;;;;;;6155044;23;20201;-87
2022/10/26 08:21:38;;;;;;;32.83;18.60;;;12.50;99.90;;;;;;6154556;23;20195;-87
2022/10/26 08:24:08;;;;;;;32.15;18.58;;;12.50;99.90;;;;;;6155250;23;20179;-87
2022/10/26 08:26:37;;;;;;;33.75;18.90;;;12.50;99.90;;;;;;6155121;23;20181;-87
2022/10/26 08:29:05;;;;;;;19.70;16.90;;;12.60;99.90;;;;;;6155030;23;20171;-87
2022/10/26 08:31:35;;;;;;;32.75;19.40;;;12.60;99.90;;;;;;6155009;23;20205;-87
2022/10/26 08:34:03;;;;;;;25.90;19.88;;;12.60;99.90;;;;;;6154750;23;20175;-87
2022/10/26 08:36:32;;;;;;;23.25;18.60;;;12.60;99.90;;;;;;6155201;23;20186;-88
2022/10/26 08:39:00;;;;;;;47.42;21.23;;;12.50;99.90;;;;;;6154859;23;20197;-87
2022/10/26 08:41:37;;;;;;;34.35;21.85;;;12.50;99.90;;;;;;6155180;23;20198;-88
2022/10/26 08:44:18;;;;;;;29.80;21.05;;;12.50;99.90;;;;;;6154732;23;20167;-87
2022/10/26 08:46:52;;;;;;;27.80;21.77;;;12.50;99.90;;;;;;6154728;23;20189;-88
2022/10/26 08:49:24;;;;;;;24.75;20.17;;;12.50;99.90;;;;;;6154773;23;20171;-88
2022/10/26 08:51:56;;;;;;;29.42;22.23;;;12.50;99.90;;;;;;6155377;23;20163;-88
2022/10/26 08:54:34;;;;;;;29.92;20.23;;;12.50;99.90;;;;;;6155033;23;20176;-88
2022/10/26 08:57:11;;;;;;;29.27;22.33;;;12.50;99.90;;;;;;6156454;23;20171;-87
2022/10/26 08:59:47;;;;;;;31.10;21.05;;;12.60;99.90;;;;;;6156473;23;20199;-88
2022/10/26 09:02:18;;;;;;;25.17;19.85;;;12.60;99.90;;;;;;6155034;23;20171;-88
2022/10/26 09:04:47;;;;;;;33.55;22.50;;;12.50;99.90;;;;;;6155126;23;20170;-88
2022/10/26 09:07:42;;;;;;;31.75;21.38;;;12.50;99.90;;;;;;6155121;23;20179;-88
2022/10/26 09:10:30;;;;;;;29.40;21.48;;;12.50;99.90;;;;;;6147224;23;20202;-87
2022/10/26 09:13:04;;;;;;;32.72;20.77;;;12.50;99.90;;;;;;6155052;23;20174;-88
2022/10/26 09:15:43;;;;;;;33.30;23.42;;;12.40;99.90;;;;;;6155028;23;20179;-87
2022/10/26 09:18:24;;;;;;;28.40;21.10;;;12.40;99.90;;;;;;6154591;23;20190;-88
2022/10/26 09:21:11;;;;;;;32.85;24.23;;;12.40;99.90;;;;;;6155152;23;20198;-87
2022/10/26 09:24:02;;;;;;;40.90;25.38;;;12.50;99.90;;;;;;6154998;23;20164;-87
2022/10/26 09:26:37;;;;;;;32.60;25.88;;;12.60;99.90;;;;;;6154367;23;20175;-88
2022/10/26 09:29:11;;;;;;;35.35;27.30;;;12.60;99.90;;;;;;6154398;23;20171;-88
2022/10/26 09:31:42;;;;;;;37.67;25.88;;;12.60;99.90;;;;;;6154449;23;20209;-89
2022/10/26 09:34:20;;;;;;;37.30;27.25;;;12.60;99.90;;;;;;6154796;23;20167;-88
2022/10/26 09:36:54;;;;;;;39.13;26.65;;;12.70;99.90;;;;;;6156742;23;20183;-88
2022/10/26 09:39:30;;;;;;;35.25;26.73;;;12.70;99.90;;;;;;6156563;23;20195;-88
2022/10/26 09:42:02;;;;;;;33.28;26.55;;;12.80;99.90;;;;;;6156932;23;20175;-88
2022/10/26 09:44:34;;;;;;;34.33;27.30;;;12.80;99.90;;;;;;6156685;23;20172;-88
2022/10/26 09:47:10;;;;;;;35.25;28.88;;;12.90;99.90;;;;;;6156901;23;20174;-88
2022/10/26 09:49:47;;;;;;;36.33;28.50;;;12.90;99.90;;;;;;6156222;23;20191;-87
2022/10/26 09:52:16;;;;;;;44.08;32.75;;;13.00;99.90;;;;;;6156634;23;20168;-88
2022/10/26 09:54:45;;;;;;;42.42;31.25;;;13.10;99.90;;;;;;6156623;23;20175;-88
2022/10/26 09:57:15;;;;;;;32.03;27.83;;;13.10;99.90;;;;;;6156551;23;20178;-88
2022/10/26 09:59:46;;;;;;;39.22;28.75;;;13.10;99.90;;;;;;6154249;23;20211;-88
2022/10/26 10:02:33;;;;;;;55.92;29.70;;;13.10;99.90;;;;;;6152607;23;20253;-88
2022/10/26 10:05:20;;;;;;;33.97;27.63;;;13.10;99.90;;;;;;6153826;23;20217;-88
2022/10/26 10:08:17;;;;;;;40.80;30.15;;;13.00;99.90;;;;;;6153704;23;20179;-88
2022/10/26 10:11:01;;;;;;;32.70;28.35;;;13.10;99.90;;;;;;6154528;23;20198;-88
2022/10/26 10:13:31;;;;;;;41.58;28.75;;;13.10;99.90;;;;;;6156082;23;20179;-88
2022/10/26 10:16:12;;;;;;;36.90;28.90;;;13.10;99.90;;;;;;6153771;23;20190;-88
2022/10/26 10:18:42;;;;;;;41.95;26.38;;;13.20;99.90;;;;;;6153425;23;20179;-88
2022/10/26 10:21:13;;;;;;;32.45;26.67;;;13.10;99.90;;;;;;6153439;23;20213;-88
2022/10/26 10:23:50;;;;;;;39.53;28.45;;;13.20;99.90;;;;;;6153558;23;20185;-87
2022/10/26 10:26:19;;;;;;;46.17;31.88;;;13.20;99.90;;;;;;6153687;23;20206;-88
2022/10/26 10:28:58;;;;;;;37.80;27.73;;;13.20;99.90;;;;;;6153371;23;20235;-88
2022/10/26 10:31:30;;;;;;;38.65;28.85;;;13.20;99.90;;;;;;6153464;23;20207;-88
2022/10/26 10:33:58;;;;;;;30.35;26.42;;;13.20;99.90;;;;;;6153969;23;20186;-88
2022/10/26 10:36:30;;;;;;;41.88;29.20;;;13.10;99.90;;;;;;6153455;23;20179;-88
2022/10/26 10:38:59;;;;;;;29.75;25.98;;;13.20;99.90;;;;;;6153284;23;20182;-88
2022/10/26 10:41:30;;;;;;;38.97;26.60;;;13.20;99.90;;;;;;6153156;23;20192;-88
2022/10/26 10:44:06;;;;;;;33.70;27.50;;;13.20;99.90;;;;;;6153436;23;20186;-88
2022/10/26 10:46:36;;;;;;;33.55;25.83;;;13.10;99.90;;;;;;6153667;23;20183;-88
2022/10/26 10:49:06;;;;;;;33.33;27.33;;;13.20;99.90;;;;;;6153276;23;20180;-88
2022/10/26 10:51:40;;;;;;;47.22;28.30;;;13.20;99.90;;;;;;6153584;23;20201;-88
2022/10/26 10:54:22;;;;;;;33.65;28.30;;;13.20;99.90;;;;;;6153865;23;20176;-88
2022/10/26 10:56:53;;;;;;;37.45;31.00;;;13.40;99.90;;;;;;6153350;23;20183;-88
2022/10/26 10:59:40;;;;;;;36.63;31.67;;;13.40;99.90;;;;;;6152835;23;20176;-88
2022/10/26 11:02:27;;;;;;;33.72;28.50;;;13.50;99.90;;;;;;6153941;23;20179;-88
2022/10/26 11:05:22;;;;;;;33.63;29.67;;;13.60;99.90;;;;;;6153315;23;20179;-88
2022/10/26 11:08:03;;;;;;;44.80;28.85;;;13.70;99.90;;;;;;6154062;23;20180;-88
2022/10/26 11:10:36;;;;;;;32.30;28.42;;;13.70;99.90;;;;;;6152845;23;20198;-88
2022/10/26 11:13:13;;;;;;;33.20;26.33;;;13.80;99.90;;;;;;6153038;23;20183;-88
2022/10/26 11:15:44;;;;;;;38.70;28.35;;;13.90;99.90;;;;;;6153029;23;20175;-88
2022/10/26 11:18:17;;;;;;;42.40;29.58;;;14.00;99.90;;;;;;6152937;23;20182;-89
2022/10/26 11:20:51;;;;;;;34.50;27.45;;;14.10;99.90;;;;;;6152758;23;20203;-89
2022/10/26 11:23:26;;;;;;;33.83;27.17;;;14.20;99.90;;;;;;6152837;23;20182;-88
2022/10/26 11:25:59;;;;;;;38.03;29.00;;;14.20;99.90;;;;;;6153063;23;20178;-89
2022/10/26 11:28:39;;;;;;;35.67;27.77;;;14.30;99.90;;;;;;6155054;23;20182;-88
2022/10/26 11:31:11;;;;;;;31.08;27.70;;;14.30;99.90;;;;;;6152685;23;20203;-89
2022/10/26 11:33:45;;;;;;;30.73;27.10;;;14.30;99.90;;;;;;6153133;23;20182;-89
2022/10/26 11:36:17;;;;;;;36.97;28.25;;;14.40;99.90;;;;;;6152705;23;20179;-89
2022/10/26 11:38:55;;;;;;;42.58;28.25;;;14.40;99.90;;;;;;6152767;23;20174;-88
2022/10/26 11:41:30;;;;;;;36.47;29.77;;;14.60;99.90;;;;;;6152626;23;20206;-89
2022/10/26 11:44:05;;;;;;;32.65;26.48;;;14.70;99.90;;;;;;6152830;23;20183;-89
2022/10/26 11:46:39;;;;;;;33.70;29.08;;;14.70;99.90;;;;;;6152955;23;20186;-89
2022/10/26 11:49:14;;;;;;;34.17;28.30;;;14.90;99.90;;;;;;6153186;23;20175;-89
2022/10/26 11:51:50;;;;;;;41.95;27.95;;;15.00;99.90;;;;;;6153027;23;20191;-89
2022/10/26 11:54:28;;;;;;;35.00;28.50;;;15.10;99.90;;;;;;6152613;23;20179;-89
2022/10/26 11:56:58;;;;;;;34.72;27.63;;;15.20;99.90;;;;;;6152288;23;20179;-89
2022/10/26 11:59:28;;;;;;;29.20;25.48;;;15.20;99.90;;;;;;6153436;23;20179;-89
2022/10/26 12:02:05;;;;;;;31.35;27.58;;;15.20;99.90;;;;;;6155412;23;20268;-89
2022/10/26 12:04:37;;;;;;;34.88;27.33;;;15.20;99.90;;;;;;6155300;23;20179;-89
2022/10/26 12:07:13;;;;;;;35.58;26.48;;;15.20;99.90;;;;;;6154974;23;20174;-89
2022/10/26 12:09:44;;;;;;;31.55;28.00;;;15.30;99.90;;;;;;6155265;23;20199;-89
2022/10/26 12:12:20;;;;;;;32.97;27.75;;;15.30;99.90;;;;;;6155028;23;20171;-89
2022/10/26 12:14:56;;;;;;;32.85;25.48;;;15.40;99.90;;;;;;6155652;23;20174;-89
2022/10/26 12:17:29;;;;;;;29.73;26.60;;;15.40;99.90;;;;;;6154907;23;20167;-89
2022/10/26 12:20:07;;;;;;;33.08;27.15;;;15.30;99.90;;;;;;6155244;23;20195;-88
2022/10/26 12:22:39;;;;;;;38.35;25.52;;;15.30;99.90;;;;;;6155324;23;20167;-88
2022/10/26 12:25:20;;;;;;;33.30;25.13;;;15.30;99.90;;;;;;6154967;23;20174;-88
2022/10/26 12:27:54;;;;;;;32.42;23.92;;;15.30;99.90;;;;;;6154753;23;20167;-88
2022/10/26 12:30:30;;;;;;;26.48;22.35;;;15.30;99.90;;;;;;6154363;23;20222;-88
2022/10/26 12:33:00;;;;;;;24.90;22.05;;;15.30;99.90;;;;;;6155260;23;20170;-88
2022/10/26 12:35:40;;;;;;;22.02;19.80;;;15.30;99.90;;;;;;6155522;23;20178;-89
2022/10/26 12:38:48;;;;;;;24.95;20.25;;;15.30;99.90;;;;;;6155152;23;20175;-89
2022/10/26 12:41:25;;;;;;;24.70;19.42;;;15.40;99.90;;;;;;6154915;23;20191;-88
2022/10/26 12:43:58;;;;;;;25.55;19.33;;;15.40;99.90;;;;;;6156527;23;20224;-89
2022/10/26 12:46:43;;;;;;;25.55;18.98;;;15.50;99.90;;;;;;6155625;23;20193;-89
2022/10/26 12:49:48;;;;;;;25.45;18.63;;;15.50;99.90;;;;;;6154395;23;20243;-89
2022/10/26 12:52:23;;;;;;;20.00;17.88;;;15.60;99.90;;;;;;6127302;23;20171;-89
2022/10/26 12:55:13;;;;;;;25.83;19.17;;;15.70;99.90;;;;;;6154717;23;20169;-89
2022/10/26 12:57:51;;;;;;;29.10;19.20;;;15.70;99.90;;;;;;6155101;23;20174;-89
2022/10/26 13:00:24;;;;;;;20.80;18.23;;;15.80;99.90;;;;;;6154609;23;20194;-88
2022/10/26 13:03:05;;;;;;;22.75;18.58;;;15.80;99.90;;;;;;6155245;23;20203;-89
2022/10/26 13:05:55;;;;;;;24.58;19.20;;;15.90;99.90;;;;;;6154709;23;20175;-89